Time;durP1;ratioP1;P1;durP2;ratioP2;P2;SDS_P1;SDS_P2;PMS_P1;PMS_P2;Temp;Humidity;BMP_temperature;BMP_pressure;BME280_temperature;BME280_humidity;BME280_pressure;Samples;Min_cycle;Max_cycle;Signal;HPM_P1;HPM_P2
2023/08/28 00:01:32;;;;;;;3.95;2.63;;;;;;;21.35;49.07;94479.00;5129192;27;20084;-72
2023/08/28 00:03:57;;;;;;;4.60;2.95;;;;;;;21.34;49.05;94482.66;5108008;28;20034;-71
2023/08/28 00:06:23;;;;;;;4.38;2.70;;;;;;;21.31;48.71;94477.78;5125630;27;20028;-72
2023/08/28 00:08:48;;;;;;;4.38;2.90;;;;;;;21.25;48.64;94478.56;5097036;27;20432;-71
2023/08/28 00:11:13;;;;;;;4.25;2.90;;;;;;;21.18;48.75;94480.41;5109682;27;20027;-71
2023/08/28 00:13:39;;;;;;;4.35;2.90;;;;;;;21.22;49.06;94478.97;5140523;27;20025;-71
2023/08/28 00:16:04;;;;;;;4.32;2.90;;;;;;;20.96;49.52;94475.25;5129800;27;20031;-71
2023/08/28 00:18:30;;;;;;;4.85;2.90;;;;;;;21.05;48.85;94475.88;5131359;27;20031;-72
2023/08/28 00:20:55;;;;;;;4.13;2.85;;;;;;;21.04;48.88;94476.09;5116394;27;20039;-71
2023/08/28 00:23:20;;;;;;;4.22;3.38;;;;;;;20.97;48.97;94468.16;5112448;27;20026;-71
2023/08/28 00:25:46;;;;;;;5.25;3.10;;;;;;;20.95;48.93;94472.84;5100325;27;20031;-71
2023/08/28 00:28:11;;;;;;;4.47;3.20;;;;;;;20.99;48.23;94479.34;5113161;27;20047;-71
2023/08/28 00:30:37;;;;;;;5.88;3.08;;;;;;;20.94;48.83;94479.09;5140650;27;20469;-72
2023/08/28 00:33:03;;;;;;;5.07;3.05;;;;;;;20.92;48.41;94476.69;5129536;27;20396;-71
2023/08/28 00:35:28;;;;;;;5.40;3.13;;;;;;;21.10;47.41;94475.31;5121009;27;20078;-71
2023/08/28 00:37:54;;;;;;;4.05;2.90;;;;;;;21.14;47.51;94472.03;5132688;27;20440;-71
2023/08/28 00:40:19;;;;;;;7.20;2.95;;;;;;;21.22;47.25;94480.81;5136821;27;20022;-72
2023/08/28 00:42:45;;;;;;;4.43;2.80;;;;;;;21.24;47.18;94470.84;5145765;27;20525;-72
2023/08/28 00:45:10;;;;;;;3.85;2.63;;;;;;;21.31;47.11;94475.16;5112708;27;20019;-72
2023/08/28 00:47:36;;;;;;;5.45;2.90;;;;;;;21.36;47.05;94480.59;5110120;28;20463;-72
2023/08/28 00:50:02;;;;;;;4.13;2.80;;;;;;;21.36;47.06;94477.97;5111826;27;20031;-71
2023/08/28 00:52:28;;;;;;;3.50;2.78;;;;;;;21.36;47.39;94485.09;5112599;27;20027;-72
2023/08/28 00:54:53;;;;;;;4.25;2.88;;;;;;;21.32;47.34;94483.88;5132189;27;20027;-72
2023/08/28 00:57:18;;;;;;;3.65;2.85;;;;;;;21.22;47.78;94489.53;5120976;27;20412;-72
2023/08/28 00:59:44;;;;;;;4.07;3.00;;;;;;;21.32;47.46;94489.16;5112630;27;20034;-72
2023/08/28 01:02:10;;;;;;;5.50;3.13;;;;;;;21.31;47.47;94488.34;5130066;27;20088;-72
2023/08/28 01:04:35;;;;;;;3.63;2.70;;;;;;;21.18;47.67;94486.47;5128920;27;20026;-71
2023/08/28 01:07:09;;;;;;;4.35;2.42;;;;;;;21.30;47.54;94476.13;5129292;27;20088;-72
2023/08/28 01:10:12;;;;;;;4.63;3.03;;;;;;;21.26;47.57;94468.84;5130929;27;20024;-72
2023/08/28 01:12:56;;;;;;;4.22;2.90;;;;;;;21.26;47.54;94468.84;5125937;27;20548;-72
2023/08/28 01:15:22;;;;;;;7.28;3.05;;;;;;;21.07;47.94;94451.94;5130486;27;20019;-72
2023/08/28 01:18:14;;;;;;;3.83;2.92;;;;;;;21.14;48.10;94461.47;5111628;27;20050;-71
2023/08/28 01:20:39;;;;;;;4.43;2.90;;;;;;;21.04;47.99;94473.47;5135846;27;20085;-72
2023/08/28 01:23:05;;;;;;;3.67;3.03;;;;;;;20.98;48.35;94467.16;5118449;27;20027;-71
2023/08/28 01:25:30;;;;;;;3.67;2.72;;;;;;;21.03;48.28;94467.34;5138638;27;20018;-71
2023/08/28 01:27:56;;;;;;;3.83;3.00;;;;;;;21.01;48.12;94460.66;5098971;28;20541;-72
2023/08/28 01:30:22;;;;;;;6.13;2.80;;;;;;;21.04;47.99;94455.78;5118308;27;20493;-72
2023/08/28 01:32:47;;;;;;;5.50;3.00;;;;;;;20.96;48.57;94459.41;5145542;27;20116;-72
2023/08/28 01:35:19;;;;;;;3.90;2.63;;;;;;;21.00;48.44;94459.00;5134989;27;20022;-72
2023/08/28 01:37:50;;;;;;;3.97;2.72;;;;;;;21.02;48.16;94462.28;5101877;28;20125;-72
2023/08/28 01:40:15;;;;;;;3.92;2.92;;;;;;;20.79;48.88;94449.44;5135409;27;20077;-72
2023/08/28 01:42:41;;;;;;;5.10;3.03;;;;;;;20.77;48.83;94460.19;5146243;27;20493;-72
2023/08/28 01:45:07;;;;;;;4.07;2.63;;;;;;;20.81;49.49;94464.06;5113986;27;20051;-72
2023/08/28 01:47:33;;;;;;;3.92;3.00;;;;;;;20.81;49.37;94465.88;5129663;28;20424;-71
2023/08/28 01:49:58;;;;;;;5.70;2.80;;;;;;;20.83;49.35;94459.38;5129990;28;20088;-72
2023/08/28 01:52:24;;;;;;;5.68;3.22;;;;;;;20.81;48.74;94471.97;5128369;28;20052;-71
2023/08/28 01:54:49;;;;;;;4.05;3.00;;;;;;;20.71;48.98;94451.22;5131893;27;20513;-72
2023/08/28 01:57:15;;;;;;;5.18;2.70;;;;;;;20.72;49.07;94462.59;5135024;27;20507;-72
2023/08/28 01:59:40;;;;;;;5.00;2.80;;;;;;;20.69;49.10;94463.00;5130153;27;20065;-72
2023/08/28 02:02:05;;;;;;;5.60;2.97;;;;;;;20.67;48.90;94454.44;5142536;27;20024;-72
2023/08/28 02:04:31;;;;;;;5.15;2.97;;;;;;;20.61;49.16;94442.84;5090964;28;20042;-72
2023/08/28 02:06:56;;;;;;;5.35;3.28;;;;;;;20.63;49.26;94451.41;5127870;28;20054;-72
2023/08/28 02:09:21;;;;;;;4.20;3.03;;;;;;;20.52;49.61;94458.03;5108038;28;20038;-71
2023/08/28 02:11:47;;;;;;;5.40;2.97;;;;;;;20.60;49.53;94451.00;5129783;28;20031;-71
2023/08/28 02:14:12;;;;;;;4.43;2.97;;;;;;;20.48;50.02;94446.25;5128341;27;20396;-71
2023/08/28 02:16:38;;;;;;;5.60;3.20;;;;;;;20.46;50.16;94448.25;5108768;28;20416;-72
2023/08/28 02:19:04;;;;;;;7.07;3.30;;;;;;;20.42;50.05;94439.13;5110362;28;20035;-72
2023/08/28 02:21:30;;;;;;;4.93;3.50;;;;;;;20.34;50.00;94426.09;5129556;28;20031;-72
2023/08/28 02:23:55;;;;;;;6.30;3.20;;;;;;;20.24;50.52;94438.81;5093799;28;20035;-72
2023/08/28 02:26:20;;;;;;;5.07;3.05;;;;;;;20.20;50.64;94432.34;5111810;28;20077;-71
2023/08/28 02:28:46;;;;;;;4.03;2.88;;;;;;;20.21;50.74;94445.31;5129839;28;20063;-71
2023/08/28 02:31:11;;;;;;;5.35;3.20;;;;;;;20.27;50.56;94433.16;5130102;28;20027;-71
2023/08/28 02:33:37;;;;;;;4.75;2.83;;;;;;;20.24;50.36;94429.09;5130760;27;20412;-72
2023/08/28 02:36:02;;;;;;;10.63;3.85;;;;;;;20.06;50.78;94432.25;5095911;28;20035;-72
2023/08/28 02:38:28;;;;;;;6.75;3.10;;;;;;;19.95;51.53;94438.06;5133252;27;20023;-71
2023/08/28 02:40:53;;;;;;;4.88;3.10;;;;;;;20.09;51.38;94441.59;5116683;27;20056;-72
2023/08/28 02:43:19;;;;;;;4.13;2.63;;;;;;;20.02;51.36;94436.28;5116355;27;20482;-71
2023/08/28 02:45:44;;;;;;;3.80;2.70;;;;;;;19.95;51.86;94429.34;5135192;27;20473;-71
2023/08/28 02:48:10;;;;;;;4.45;3.20;;;;;;;19.90;52.01;94426.47;5133454;27;20020;-71
2023/08/28 02:50:35;;;;;;;4.53;3.40;;;;;;;19.90;51.72;94424.66;5133518;27;20027;-71
2023/08/28 02:53:01;;;;;;;4.60;3.25;;;;;;;19.95;52.04;94424.09;5115579;27;20039;-72
2023/08/28 02:55:26;;;;;;;5.15;3.13;;;;;;;19.93;52.02;94421.63;5116269;27;20064;-71
2023/08/28 02:57:52;;;;;;;5.78;3.00;;;;;;;19.64;52.44;94391.84;5116046;27;20031;-72
2023/08/28 03:00:18;;;;;;;4.30;3.00;;;;;;;19.91;52.35;94428.91;5116370;27;20031;-71
2023/08/28 03:02:45;;;;;;;5.28;3.20;;;;;;;19.85;52.69;94425.22;5116142;27;20035;-72
2023/08/28 03:05:10;;;;;;;4.32;3.00;;;;;;;19.82;52.98;94428.25;5133227;27;20450;-72
2023/08/28 03:07:37;;;;;;;5.43;3.28;;;;;;;19.56;53.37;94415.69;5115942;27;20023;-71
2023/08/28 03:10:03;;;;;;;5.55;3.50;;;;;;;19.67;53.61;94427.56;5134752;27;20035;-71
2023/08/28 03:12:28;;;;;;;3.85;3.08;;;;;;;19.77;53.51;94424.56;5132987;27;20554;-72
2023/08/28 03:14:54;;;;;;;6.85;3.50;;;;;;;19.60;53.90;94405.56;5116020;27;20031;-72
2023/08/28 03:17:19;;;;;;;3.88;3.15;;;;;;;19.55;54.37;94414.03;5133025;27;20070;-71
2023/08/28 03:19:44;;;;;;;7.45;3.50;;;;;;;19.54;54.67;94430.88;5098725;27;20039;-72
2023/08/28 03:22:10;;;;;;;4.85;3.63;;;;;;;19.56;54.83;94434.13;5134129;27;20135;-71
2023/08/28 03:24:35;;;;;;;6.03;3.22;;;;;;;19.50;55.45;94431.41;5115914;27;20614;-72
2023/08/28 03:27:01;;;;;;;5.15;3.40;;;;;;;19.48;55.39;94429.00;5133814;27;20084;-71
2023/08/28 03:29:26;;;;;;;4.53;3.55;;;;;;;19.41;55.46;94438.66;5132840;27;20031;-72
2023/08/28 03:31:51;;;;;;;6.65;3.75;;;;;;;19.27;55.69;94421.94;5133984;27;20412;-72
2023/08/28 03:34:17;;;;;;;5.35;3.70;;;;;;;19.27;55.70;94415.84;5132882;27;20413;-71
2023/08/28 03:36:42;;;;;;;4.47;3.40;;;;;;;19.40;55.80;94439.66;5133805;27;20038;-72
2023/08/28 03:39:08;;;;;;;5.55;3.72;;;;;;;19.23;55.76;94419.88;5115565;27;20027;-71
2023/08/28 03:41:33;;;;;;;7.03;3.63;;;;;;;19.31;55.60;94439.00;5132383;27;20122;-72
2023/08/28 03:43:59;;;;;;;5.28;3.80;;;;;;;19.25;55.64;94434.50;5132460;27;20038;-72
2023/08/28 03:46:24;;;;;;;5.00;3.70;;;;;;;19.17;55.96;94437.25;5132482;27;20031;-71
2023/08/28 03:48:50;;;;;;;4.50;3.60;;;;;;;19.25;55.72;94429.22;5114722;27;20024;-71
2023/08/28 03:51:15;;;;;;;5.05;3.65;;;;;;;19.20;55.96;94432.41;5132428;27;20514;-72
2023/08/28 03:53:41;;;;;;;5.20;3.47;;;;;;;19.14;56.06;94420.00;5115136;27;20495;-71
2023/08/28 03:56:06;;;;;;;5.47;4.07;;;;;;;19.02;56.60;94429.41;5132407;27;20164;-71
2023/08/28 03:58:31;;;;;;;6.43;3.90;;;;;;;19.04;56.79;94421.31;5132196;27;20031;-71
2023/08/28 04:00:57;;;;;;;7.38;3.90;;;;;;;19.09;56.92;94435.56;5133468;27;20475;-71
2023/08/28 04:03:22;;;;;;;6.57;3.92;;;;;;;19.01;57.31;94433.03;5115004;27;20015;-71
2023/08/28 04:05:48;;;;;;;4.78;3.90;;;;;;;19.06;57.29;94435.94;5133344;27;20031;-71
2023/08/28 04:08:15;;;;;;;5.05;3.90;;;;;;;19.10;57.25;94426.63;5131939;27;20385;-71
2023/08/28 04:10:40;;;;;;;4.65;3.83;;;;;;;18.93;57.72;94423.44;5131948;27;20038;-71
2023/08/28 04:13:06;;;;;;;5.47;4.53;;;;;;;18.99;57.82;94424.50;5131954;27;20035;-71
2023/08/28 04:15:31;;;;;;;4.63;3.83;;;;;;;18.97;57.82;94426.50;5133557;27;20027;-71
2023/08/28 04:17:59;;;;;;;4.88;4.05;;;;;;;18.91;57.89;94427.25;5133010;27;20035;-72
2023/08/28 04:20:24;;;;;;;6.55;4.10;;;;;;;18.93;57.80;94435.78;5132031;27;20031;-71
2023/08/28 04:22:50;;;;;;;5.38;3.80;;;;;;;18.95;57.80;94421.44;5132944;27;20054;-71
2023/08/28 04:25:15;;;;;;;8.73;4.13;;;;;;;18.93;57.96;94436.59;5114792;27;20396;-71
2023/08/28 04:27:41;;;;;;;4.38;3.80;;;;;;;18.84;58.06;94421.13;5132582;27;20047;-71
2023/08/28 04:30:07;;;;;;;5.55;4.20;;;;;;;18.78;58.36;94432.38;5114629;27;20056;-71
2023/08/28 04:32:33;;;;;;;5.18;3.97;;;;;;;18.70;58.51;94430.69;5114470;27;20398;-71
2023/08/28 04:34:58;;;;;;;5.35;4.22;;;;;;;18.79;58.26;94426.16;5131670;27;20034;-71
2023/08/28 04:37:24;;;;;;;4.88;3.95;;;;;;;18.78;58.30;94432.38;5097255;27;20466;-71
2023/08/28 04:39:49;;;;;;;6.22;4.13;;;;;;;18.80;58.07;94438.28;5114504;27;20496;-71
2023/08/28 04:42:15;;;;;;;4.30;3.55;;;;;;;18.90;57.99;94441.44;5131353;27;20561;-72
2023/08/28 04:44:41;;;;;;;5.15;4.15;;;;;;;18.96;57.56;94430.16;5114279;27;20061;-72
2023/08/28 04:47:06;;;;;;;5.25;3.92;;;;;;;19.31;56.02;94411.84;5114172;27;20042;-71
2023/08/28 04:49:31;;;;;;;5.38;3.63;;;;;;;19.74;54.52;94432.84;5132650;27;20468;-71
2023/08/28 04:51:57;;;;;;;6.45;3.63;;;;;;;20.97;51.62;94445.19;5114102;27;20035;-72
2023/08/28 04:54:22;;;;;;;7.30;3.55;;;;;;;22.24;48.64;94440.75;5132704;27;20019;-72
2023/08/28 04:56:48;;;;;;;6.68;3.70;;;;;;;23.41;45.80;94440.59;5132302;27;20401;-72
2023/08/28 04:59:14;;;;;;;5.50;3.95;;;;;;;24.40;43.73;94449.50;5131198;27;20038;-72
2023/08/28 05:01:39;;;;;;;5.10;3.75;;;;;;;24.58;43.05;94437.31;5131494;27;20027;-72
2023/08/28 05:04:05;;;;;;;6.13;3.60;;;;;;;25.84;40.33;94446.97;5132198;27;20042;-72
2023/08/28 05:06:30;;;;;;;8.40;3.80;;;;;;;26.77;38.80;94446.31;5130840;27;20031;-72
2023/08/28 05:08:55;;;;;;;5.88;3.60;;;;;;;27.50;37.31;94442.91;5113676;27;20023;-72
2023/08/28 05:11:21;;;;;;;4.55;3.38;;;;;;;28.00;35.89;94444.81;5102124;27;20397;-72
2023/08/28 05:13:46;;;;;;;6.32;3.50;;;;;;;28.40;35.20;94432.25;5112490;27;20028;-72
2023/08/28 05:16:12;;;;;;;5.60;3.58;;;;;;;28.21;35.58;94421.06;5111490;28;20032;-72
2023/08/28 05:18:37;;;;;;;5.03;3.80;;;;;;;27.97;36.75;94421.28;5093116;28;20027;-72
2023/08/28 05:21:02;;;;;;;5.32;3.40;;;;;;;27.71;37.51;94430.69;5113844;27;20023;-72
2023/08/28 05:23:28;;;;;;;6.18;3.60;;;;;;;27.40;38.21;94413.41;5121961;27;20377;-72
2023/08/28 05:25:54;;;;;;;5.63;3.70;;;;;;;27.08;38.95;94416.56;5095994;28;20409;-72
2023/08/28 05:28:19;;;;;;;5.00;3.47;;;;;;;26.87;38.27;94423.34;5130547;27;20073;-72
2023/08/28 05:30:46;;;;;;;6.45;3.63;;;;;;;26.67;39.18;94412.31;5112867;27;20047;-73
2023/08/28 05:33:12;;;;;;;6.25;3.72;;;;;;;26.68;39.81;94417.38;5091487;28;20501;-73
2023/08/28 05:35:38;;;;;;;3.83;3.40;;;;;;;26.68;38.88;94412.06;5093467;27;20160;-72
2023/08/28 05:38:04;;;;;;;6.15;3.80;;;;;;;26.15;40.17;94365.16;5122447;28;20158;-72
2023/08/28 05:40:30;;;;;;;5.60;3.95;;;;;;;26.57;39.13;94431.56;5113554;28;20049;-73
2023/08/28 05:42:56;;;;;;;5.93;3.70;;;;;;;26.39;39.53;94432.50;5130178;27;20031;-73
2023/08/28 05:45:21;;;;;;;5.35;3.67;;;;;;;26.44;39.74;94429.09;5132033;27;20080;-70
2023/08/28 05:47:47;;;;;;;5.53;3.63;;;;;;;26.50;39.67;94426.38;5128619;27;20477;-71
2023/08/28 05:50:12;;;;;;;5.82;3.78;;;;;;;26.45;39.08;94417.44;5130294;28;20088;-71
2023/08/28 05:52:38;;;;;;;5.28;3.67;;;;;;;26.42;39.82;94417.91;5130469;27;20428;-71
2023/08/28 05:55:06;;;;;;;5.35;3.70;;;;;;;26.37;38.98;94407.16;5130308;27;20162;-71
2023/08/28 05:57:31;;;;;;;5.50;3.60;;;;;;;26.46;38.90;94419.84;5112849;28;20431;-72
2023/08/28 05:59:57;;;;;;;5.10;3.53;;;;;;;26.33;37.91;94413.97;5112595;28;20027;-72
2023/08/28 06:02:22;;;;;;;4.30;3.40;;;;;;;26.39;38.22;94411.19;5104543;28;20405;-71
2023/08/28 06:04:48;;;;;;;5.18;3.50;;;;;;;26.36;38.27;94405.53;5108803;27;20512;-71
2023/08/28 06:07:13;;;;;;;6.32;3.63;;;;;;;26.19;38.75;94408.13;5123994;28;20440;-72
2023/08/28 06:09:39;;;;;;;8.85;4.22;;;;;;;26.12;38.92;94408.22;5109586;28;20035;-71
2023/08/28 06:12:05;;;;;;;8.48;4.28;;;;;;;26.06;39.07;94409.16;5122831;27;20027;-72
2023/08/28 06:14:30;;;;;;;7.05;4.03;;;;;;;25.85;38.96;94408.72;5133926;27;20158;-72
2023/08/28 06:16:56;;;;;;;8.90;4.47;;;;;;;25.56;38.84;94409.59;5145973;27;20035;-72
2023/08/28 06:19:21;;;;;;;8.77;3.70;;;;;;;25.68;38.80;94410.38;5117112;27;20030;-72
2023/08/28 06:21:47;;;;;;;5.03;3.92;;;;;;;25.73;38.58;94423.00;5128707;27;20081;-71
2023/08/28 06:24:13;;;;;;;9.13;3.70;;;;;;;25.77;38.48;94410.84;5128807;27;20031;-72
2023/08/28 06:26:40;;;;;;;9.50;5.38;;;;;;;25.79;39.27;94432.72;5117011;27;20034;-71
2023/08/28 06:29:05;;;;;;;22.67;16.25;;;;;;;25.83;39.28;94424.09;5116588;27;20035;-72
2023/08/28 06:31:33;;;;;;;12.90;6.45;;;;;;;25.86;39.20;94412.19;5115773;27;20485;-71
2023/08/28 06:33:59;;;;;;;8.48;4.32;;;;;;;25.49;39.83;94425.66;5116590;27;20053;-71
2023/08/28 06:36:24;;;;;;;9.35;4.32;;;;;;;25.38;39.92;94419.28;5116707;27;20027;-72
2023/08/28 06:38:53;;;;;;;13.35;4.15;;;;;;;25.79;39.44;94419.41;5133652;27;20024;-72
2023/08/28 06:41:18;;;;;;;8.93;4.25;;;;;;;25.60;39.76;94421.38;5132379;27;20027;-72
2023/08/28 06:43:44;;;;;;;7.47;4.00;;;;;;;25.96;39.24;94414.25;5132387;27;20046;-72
2023/08/28 06:46:09;;;;;;;7.80;5.10;;;;;;;25.77;39.74;94424.16;5115424;27;20035;-72
2023/08/28 06:48:35;;;;;;;6.15;4.82;;;;;;;25.72;39.78;94408.09;5133918;27;20057;-71
2023/08/28 06:51:00;;;;;;;8.88;4.80;;;;;;;25.91;39.62;94406.16;5134808;27;20035;-72
2023/08/28 06:53:25;;;;;;;6.55;5.20;;;;;;;25.72;39.68;94422.19;5116401;27;20026;-72
2023/08/28 06:55:51;;;;;;;6.10;4.72;;;;;;;25.78;39.81;94415.97;5133869;27;20020;-72
2023/08/28 06:58:16;;;;;;;7.57;5.38;;;;;;;25.62;39.71;94416.63;5134601;27;20044;-72
2023/08/28 07:00:42;;;;;;;12.25;7.07;;;;;;;25.77;39.44;94406.38;5133485;27;20323;-72
2023/08/28 07:03:07;;;;;;;12.75;6.53;;;;;;;26.28;38.72;94417.34;5133332;27;20023;-72
2023/08/28 07:05:32;;;;;;;10.07;5.80;;;;;;;26.20;39.18;94412.38;5116314;27;20076;-72
2023/08/28 07:07:58;;;;;;;8.40;5.68;;;;;;;26.49;37.67;94419.41;5133250;27;20035;-72
2023/08/28 07:10:23;;;;;;;9.07;5.70;;;;;;;26.57;37.66;94417.44;5133355;27;20023;-71
2023/08/28 07:12:49;;;;;;;9.02;5.45;;;;;;;26.62;38.18;94410.34;5133088;27;20031;-72
2023/08/28 07:15:17;;;;;;;9.15;5.18;;;;;;;26.36;38.66;94418.84;5116215;27;20019;-72
2023/08/28 07:17:42;;;;;;;10.60;5.00;;;;;;;27.01;36.98;94409.75;5134152;27;20476;-72
2023/08/28 07:20:09;;;;;;;8.30;4.53;;;;;;;27.18;37.20;94416.75;5133261;27;20049;-72
2023/08/28 07:22:34;;;;;;;9.60;4.90;;;;;;;26.93;37.32;94413.59;5132898;27;20054;-72
2023/08/28 07:25:00;;;;;;;7.13;4.50;;;;;;;26.70;37.09;94403.84;5132411;27;20035;-72
2023/08/28 07:27:25;;;;;;;12.32;4.40;;;;;;;26.64;36.99;94416.25;5132592;27;20023;-72
2023/08/28 07:29:51;;;;;;;7.53;4.18;;;;;;;26.91;36.57;94423.69;5132947;27;20062;-72
2023/08/28 07:32:16;;;;;;;9.70;4.15;;;;;;;27.34;35.56;94406.38;5115594;27;20512;-72
2023/08/28 07:34:41;;;;;;;6.63;4.38;;;;;;;27.83;35.27;94420.81;5134238;27;20038;-72
2023/08/28 07:37:07;;;;;;;6.18;4.00;;;;;;;28.09;34.63;94412.34;5133925;27;20024;-72
2023/08/28 07:39:32;;;;;;;7.03;4.25;;;;;;;28.07;35.12;94408.06;5134145;27;20483;-73
2023/08/28 07:41:58;;;;;;;7.25;4.32;;;;;;;27.78;35.00;94409.22;5132583;27;20028;-72
2023/08/28 07:44:23;;;;;;;11.52;4.85;;;;;;;27.69;35.71;94421.31;5115496;27;20034;-72
2023/08/28 07:46:49;;;;;;;9.25;4.70;;;;;;;27.94;35.29;94412.94;5132447;27;20027;-72
2023/08/28 07:49:14;;;;;;;7.50;4.50;;;;;;;28.16;34.59;94420.97;5098313;27;20027;-72
2023/08/28 07:51:39;;;;;;;9.95;4.82;;;;;;;28.19;34.74;94420.50;5133593;27;20031;-72
2023/08/28 07:54:05;;;;;;;6.78;4.10;;;;;;;27.93;34.86;94414.78;5132436;27;20023;-71
2023/08/28 07:56:30;;;;;;;9.73;5.25;;;;;;;28.24;34.67;94417.88;5133610;27;20033;-72
2023/08/28 07:58:56;;;;;;;9.30;4.90;;;;;;;28.26;34.51;94418.47;5133569;27;20023;-72
2023/08/28 08:01:22;;;;;;;10.88;4.57;;;;;;;28.21;35.03;94403.16;5133438;27;20390;-72
2023/08/28 08:03:47;;;;;;;7.07;4.50;;;;;;;28.58;35.35;94423.16;5131980;27;20019;-72
2023/08/28 08:06:13;;;;;;;6.47;4.50;;;;;;;28.54;34.71;94408.69;5115009;27;20506;-72
2023/08/28 08:08:38;;;;;;;7.78;4.68;;;;;;;28.80;34.62;94410.59;5131981;27;20034;-72
2023/08/28 08:11:04;;;;;;;7.65;4.50;;;;;;;28.73;34.56;94415.34;5098068;27;20035;-72
2023/08/28 08:13:29;;;;;;;9.02;4.90;;;;;;;28.51;34.91;94424.16;5131879;27;20027;-72
2023/08/28 08:15:55;;;;;;;10.38;4.55;;;;;;;28.88;34.70;94420.84;5097818;27;20039;-72
2023/08/28 08:18:20;;;;;;;9.07;4.80;;;;;;;28.83;34.82;94425.34;5114627;27;20027;-72
2023/08/28 08:20:45;;;;;;;9.25;4.70;;;;;;;28.84;34.65;94419.75;5131705;27;20034;-72
2023/08/28 08:23:11;;;;;;;9.88;4.88;;;;;;;28.91;34.30;94393.63;5114388;27;20034;-72
2023/08/28 08:25:36;;;;;;;9.45;5.13;;;;;;;28.80;35.27;94389.22;5131730;27;20052;-72
2023/08/28 08:28:02;;;;;;;7.78;4.97;;;;;;;28.98;34.97;94412.16;5097346;27;20050;-72
2023/08/28 08:30:28;;;;;;;11.18;4.70;;;;;;;28.99;34.82;94413.75;5131748;27;20066;-72
2023/08/28 08:32:53;;;;;;;7.13;4.93;;;;;;;28.74;34.99;94366.19;5097359;27;20062;-72
2023/08/28 08:35:19;;;;;;;7.75;4.57;;;;;;;29.10;35.01;94414.69;5113577;27;20454;-72
2023/08/28 08:37:47;;;;;;;6.57;5.00;;;;;;;28.72;34.10;94321.03;5131384;27;20060;-72
2023/08/28 08:40:13;;;;;;;12.05;4.97;;;;;;;29.14;33.67;94403.25;5114922;27;20042;-72
2023/08/28 08:42:39;;;;;;;7.32;4.65;;;;;;;29.16;34.24;94397.63;5131318;27;20059;-72
2023/08/28 08:45:05;;;;;;;9.43;4.68;;;;;;;29.26;33.52;94376.34;5132980;27;20024;-72
2023/08/28 08:47:30;;;;;;;8.63;4.78;;;;;;;29.55;32.60;94381.41;5131515;27;20110;-72
2023/08/28 08:49:56;;;;;;;8.40;4.88;;;;;;;29.40;32.46;94313.34;5131333;27;20035;-72
2023/08/28 08:52:22;;;;;;;9.60;4.22;;;;;;;30.04;32.78;94375.88;5114277;27;20344;-72
2023/08/28 08:54:47;;;;;;;7.93;4.20;;;;;;;30.05;31.94;94383.66;5113971;27;20027;-72
2023/08/28 08:57:15;;;;;;;8.30;4.60;;;;;;;29.98;31.39;94377.72;5113903;27;20497;-72
2023/08/28 08:59:41;;;;;;;6.95;4.78;;;;;;;30.37;31.30;94381.97;5114329;27;20168;-72
2023/08/28 09:02:07;;;;;;;6.88;4.75;;;;;;;30.45;31.62;94382.28;5131075;27;20027;-72
2023/08/28 09:04:33;;;;;;;6.75;4.68;;;;;;;30.32;31.66;94376.59;5114097;27;20493;-72
2023/08/28 09:06:58;;;;;;;6.45;4.28;;;;;;;30.38;31.15;94364.84;5113810;27;20042;-72
2023/08/28 09:09:24;;;;;;;7.03;4.60;;;;;;;30.36;31.63;94361.59;5130724;27;20064;-72
2023/08/28 09:11:49;;;;;;;7.95;4.38;;;;;;;30.25;30.74;94361.56;5113778;27;20469;-72
2023/08/28 09:14:15;;;;;;;7.28;4.70;;;;;;;30.28;31.23;94362.91;5113822;27;20019;-72
2023/08/28 09:16:41;;;;;;;6.68;4.53;;;;;;;30.33;31.32;94357.56;5096649;27;20516;-72
2023/08/28 09:19:07;;;;;;;7.57;4.25;;;;;;;30.56;30.76;94360.88;5130625;27;20031;-72
2023/08/28 09:21:37;;;;;;;7.93;4.50;;;;;;;30.41;31.22;94343.69;5129475;27;20059;-72
2023/08/28 09:24:05;;;;;;;6.97;4.18;;;;;;;30.90;30.83;94356.75;5129520;27;20024;-72
2023/08/28 09:26:30;;;;;;;8.50;4.07;;;;;;;30.91;29.82;94347.63;5095646;27;20031;-72
2023/08/28 09:28:59;;;;;;;6.97;4.32;;;;;;;30.59;30.18;94345.09;5129165;27;20039;-72
2023/08/28 09:31:29;;;;;;;7.68;4.10;;;;;;;30.57;30.26;94317.75;5130649;27;20035;-72
2023/08/28 09:33:54;;;;;;;8.63;4.57;;;;;;;30.70;29.58;94330.66;5130416;27;20034;-72
2023/08/28 09:36:19;;;;;;;14.77;4.50;;;;;;;30.95;29.61;94331.78;5130596;28;20781;-72
2023/08/28 09:38:45;;;;;;;6.18;3.95;;;;;;;30.88;29.72;94321.34;5130566;28;20029;-72
2023/08/28 09:41:10;;;;;;;4.85;4.05;;;;;;;31.07;29.08;94321.63;5130536;28;20035;-72
2023/08/28 09:43:36;;;;;;;5.20;3.90;;;;;;;31.31;28.71;94310.38;5130391;28;20030;-72
2023/08/28 09:46:02;;;;;;;7.90;4.72;;;;;;;31.19;28.37;94312.53;5130531;27;20070;-72
2023/08/28 09:48:32;;;;;;;5.22;3.75;;;;;;;30.78;28.20;94280.28;5117272;27;20023;-72
2023/08/28 09:51:04;;;;;;;7.40;3.80;;;;;;;31.22;28.52;94309.31;5134686;27;20091;-72
2023/08/28 09:53:30;;;;;;;8.43;3.92;;;;;;;31.28;27.16;94292.94;5118352;27;20038;-72
2023/08/28 09:55:56;;;;;;;11.40;3.90;;;;;;;30.87;27.31;94265.28;5100547;27;20035;-72
2023/08/28 09:58:26;;;;;;;7.60;3.78;;;;;;;31.00;27.74;94294.25;5117456;27;20027;-72
2023/08/28 10:00:52;;;;;;;7.60;3.63;;;;;;;30.56;27.70;94222.34;5101185;27;20074;-72
2023/08/28 10:03:17;;;;;;;5.90;3.30;;;;;;;30.84;27.76;94263.97;5117358;27;20492;-72
2023/08/28 10:05:44;;;;;;;5.97;3.63;;;;;;;31.38;26.38;94292.16;5100277;27;20031;-72
2023/08/28 10:08:10;;;;;;;7.47;4.13;;;;;;;31.22;27.84;94271.75;5100164;27;20412;-72
2023/08/28 10:10:37;;;;;;;6.22;3.70;;;;;;;31.35;26.93;94290.78;5117118;27;20076;-72
2023/08/28 10:13:05;;;;;;;5.72;3.50;;;;;;;31.44;26.97;94250.84;5100263;27;20645;-72
2023/08/28 10:15:31;;;;;;;8.70;3.80;;;;;;;31.67;27.11;94251.31;5134422;27;20027;-73
2023/08/28 10:17:58;;;;;;;7.82;3.47;;;;;;;31.76;27.05;94274.66;5100302;27;20043;-72
2023/08/28 10:20:26;;;;;;;7.97;3.70;;;;;;;31.80;26.67;94253.44;5134365;27;20019;-72
2023/08/28 10:22:51;;;;;;;7.13;4.07;;;;;;;31.24;27.35;94194.50;5134097;27;20031;-72
2023/08/28 10:25:17;;;;;;;6.43;3.70;;;;;;;31.64;26.77;94268.78;5134232;27;20533;-72
2023/08/28 10:27:42;;;;;;;5.72;3.53;;;;;;;31.68;26.59;94259.13;5133768;27;20120;-72
2023/08/28 10:30:08;;;;;;;7.38;3.35;;;;;;;31.27;26.92;94218.91;5117022;27;20099;-72
2023/08/28 10:32:33;;;;;;;8.05;3.63;;;;;;;31.27;27.40;94240.38;5099982;27;20500;-73
2023/08/28 10:34:59;;;;;;;4.95;3.15;;;;;;;31.26;27.23;94237.94;5116871;27;20105;-72
2023/08/28 10:37:24;;;;;;;5.82;3.60;;;;;;;31.29;27.24;94218.66;5116633;27;20035;-72
2023/08/28 10:39:49;;;;;;;4.80;3.55;;;;;;;31.36;27.67;94178.94;5099723;27;20031;-72
2023/08/28 10:42:17;;;;;;;4.22;3.33;;;;;;;31.78;26.82;94231.44;5116510;27;20095;-72
2023/08/28 10:44:43;;;;;;;6.30;3.50;;;;;;;31.88;27.33;94239.44;5116582;27;20027;-72
2023/08/28 10:47:08;;;;;;;6.32;3.25;;;;;;;31.96;26.75;94238.13;5099469;27;20038;-72
2023/08/28 10:49:34;;;;;;;5.90;3.90;;;;;;;31.90;26.36;94231.09;5099413;27;20485;-72
2023/08/28 10:52:01;;;;;;;5.57;3.25;;;;;;;31.83;26.84;94212.63;5116488;27;20046;-72
2023/08/28 10:54:36;;;;;;;9.05;3.92;;;;;;;32.04;27.30;94219.56;5116545;27;20042;-72
2023/08/28 10:57:05;;;;;;;4.95;3.42;;;;;;;31.47;27.32;94150.22;5099744;27;20031;-72
2023/08/28 10:59:43;;;;;;;4.68;3.50;;;;;;;31.88;27.51;94203.75;5115780;27;20385;-72
2023/08/28 11:02:09;;;;;;;5.05;3.17;;;;;;;31.91;27.54;94211.25;5117555;27;20039;-72
2023/08/28 11:04:36;;;;;;;6.15;3.45;;;;;;;31.89;27.28;94218.78;5116304;27;20043;-72
2023/08/28 11:07:02;;;;;;;5.43;3.53;;;;;;;31.92;27.00;94207.50;5099298;27;20389;-72
2023/08/28 11:09:27;;;;;;;10.07;3.55;;;;;;;32.00;26.23;94215.78;5115985;27;20059;-72
2023/08/28 11:11:59;;;;;;;6.10;2.83;;;;;;;31.96;25.92;94212.06;5134293;27;20066;-72
2023/08/28 11:14:25;;;;;;;4.95;2.75;;;;;;;31.68;26.04;94209.97;5134577;27;20034;-72
2023/08/28 11:17:11;;;;;;;4.65;2.90;;;;;;;31.88;26.05;94199.19;5134294;27;20027;-72
2023/08/28 11:19:54;;;;;;;3.97;2.70;;;;;;;31.85;25.98;94194.34;5116297;27;20404;-72
2023/08/28 11:22:36;;;;;;;4.22;2.72;;;;;;;32.09;25.64;94196.41;5132855;27;20038;-72
2023/08/28 11:25:04;;;;;;;5.85;2.60;;;;;;;31.96;25.39;94136.88;5133072;27;20027;-72
2023/08/28 11:27:43;;;;;;;3.70;2.70;;;;;;;32.26;24.01;94180.75;5115883;27;20034;-72
2023/08/28 11:30:09;;;;;;;5.55;2.53;;;;;;;32.25;25.20;94171.09;5132970;27;20027;-72